Time,TemperatureF,DewpointF,PressureIn,WindDirection,WindDirectionDegrees,WindSpeedMPH,WindSpeedGustMPH,Humidity,HourlyPrecipIn,Conditions,Clouds,dailyrainin,SolarRadiationWatts/m^2,SoftwareType,DateUTC
2015-06-02 00:03:00,51.1,50.3,30.07,North,0,1.2,0.0,97,0.00,RA,,0.00,0.0,WeatherDisplay:10.37,2015-06-02 04:03:00,
2015-06-02 00:08:00,50.9,50.1,30.08,North,0,1.2,0.0,97,0.00,RA,,0.00,0.0,WeatherDisplay:10.37,2015-06-02 04:08:00,
2015-06-02 00:13:00,50.7,49.9,30.08,North,0,1.2,0.0,97,0.00,CLR,,0.00,0.0,WeatherDisplay:10.37,2015-06-02 04:13:00,
2015-06-02 00:18:00,50.5,50.0,30.08,North,0,0.0,0.0,98,0.00,CLR,,0.00,0.0,WeatherDisplay:10.37,2015-06-02 04:18:00,
2015-06-02 00:23:00,50.4,49.8,30.08,North,0,0.0,0.0,98,0.00,CLR,,0.00,0.0,WeatherDisplay:10.37,2015-06-02 04:23:00,
2015-06-02 00:28:00,50.2,49.6,30.08,North,0,0.0,0.0,98,0.00,CLR,,0.00,0.0,WeatherDisplay:10.37,2015-06-02 04:28:00,
2015-06-02 00:33:00,50.0,49.5,30.08,South,180,0.0,0.0,98,0.00,CLR,,0.00,0.0,WeatherDisplay:10.37,2015-06-02 04:33:00,
2015-06-02 00:38:00,50.0,49.5,30.08,North,0,0.0,0.0,98,0.00,CLR,,0.00,0.0,WeatherDisplay:10.37,2015-06-02 04:38:00,
2015-06-02 00:43:00,49.6,49.4,30.08,East,90,0.0,0.0,99,0.00,CLR,,0.00,0.0,WeatherDisplay:10.37,2015-06-02 04:43:00,
2015-06-02 00:48:00,49.6,49.4,30.08,North,0,0.0,0.0,99,0.00,CLR,,0.00,0.0,WeatherDisplay:10.37,2015-06-02 04:48:00,
2015-06-02 00:53:00,49.5,49.2,30.08,North,0,0.0,0.0,99,0.00,CLR,,0.00,0.0,WeatherDisplay:10.37,2015-06-02 04:53:00,
2015-06-02 00:58:00,49.3,49.0,30.08,North,0,0.0,0.0,99,0.00,CLR,,0.00,0.0,WeatherDisplay:10.37,2015-06-02 04:58:00,
2015-06-02 01:03:00,49.1,48.8,30.07,North,0,0.0,0.0,99,0.00,CLR,,0.00,0.0,WeatherDisplay:10.37,2015-06-02 05:03:00,
2015-06-02 01:08:00,49.1,48.8,30.07,North,0,0.0,0.0,99,0.00,CLR,,0.00,0.0,WeatherDisplay:10.37,2015-06-02 05:08:00,
2015-06-02 01:13:00,49.1,48.8,30.06,North,0,0.0,0.0,99,0.00,CLR,,0.00,0.0,WeatherDisplay:10.37,2015-06-02 05:13:00,
2015-06-02 01:18:00,49.1,48.8,30.06,North,0,1.2,0.0,99,0.00,CLR,,0.00,0.0,WeatherDisplay:10.37,2015-06-02 05:18:00,
2015-06-02 01:23:00,49.3,49.0,30.05,North,0,1.2,1.2,99,0.00,CLR,,0.00,0.0,WeatherDisplay:10.37,2015-06-02 05:23:00,
2015-06-02 01:28:00,49.3,49.0,30.06,North,0,1.2,0.0,99,0.00,CLR,,0.00,0.0,WeatherDisplay:10.37,2015-06-02 05:28:00,
2015-06-02 01:33:00,49.3,49.0,30.05,North,0,1.2,0.0,99,0.00,CLR,,0.00,0.0,WeatherDisplay:10.37,2015-06-02 05:33:00,
2015-06-02 01:38:00,49.3,49.0,30.06,North,0,0.0,0.0,99,0.00,CLR,,0.00,0.0,WeatherDisplay:10.37,2015-06-02 05:38:00,
2015-06-02 01:43:00,49.3,49.0,30.05,North,0,1.2,0.0,99,0.00,CLR,,0.00,0.0,WeatherDisplay:10.37,2015-06-02 05:43:00,
2015-06-02 01:48:00,49.3,49.0,30.05,North,0,1.2,0.0,99,0.00,CLR,,0.00,0.0,WeatherDisplay:10.37,2015-06-02 05:48:00,
2015-06-02 01:53:00,49.3,49.0,30.05,North,0,0.0,0.0,99,0.00,CLR,,0.00,0.0,WeatherDisplay:10.37,2015-06-02 05:53:00,
2015-06-02 01:58:00,49.3,49.0,30.05,North,0,0.0,0.0,99,0.00,CLR,,0.00,0.0,WeatherDisplay:10.37,2015-06-02 05:58:00,
2015-06-02 02:03:00,49.1,48.8,30.06,NW,315,0.0,0.0,99,0.00,CLR,,0.00,0.0,WeatherDisplay:10.37,2015-06-02 06:03:00,
2015-06-02 02:08:00,49.1,48.8,30.05,North,0,0.0,0.0,99,0.00,CLR,,0.00,0.0,WeatherDisplay:10.37,2015-06-02 06:08:00,
2015-06-02 02:13:00,48.9,48.7,30.05,North,0,1.2,0.0,99,0.00,CLR,,0.00,0.0,WeatherDisplay:10.37,2015-06-02 06:13:00,
2015-06-02 02:18:00,48.9,48.7,30.05,North,0,1.2,0.0,99,0.00,CLR,,0.00,0.0,WeatherDisplay:10.37,2015-06-02 06:18:00,
2015-06-02 02:23:00,48.9,48.7,30.05,North,0,0.0,0.0,99,0.00,CLR,,0.00,0.0,WeatherDisplay:10.37,2015-06-02 06:23:00,
2015-06-02 02:28:00,48.9,48.7,30.05,NW,315,1.2,0.0,99,0.00,CLR,,0.00,0.0,WeatherDisplay:10.37,2015-06-02 06:28:00,
2015-06-02 02:33:00,48.9,48.7,30.04,North,0,1.2,1.2,99,0.00,CLR,,0.00,0.0,WeatherDisplay:10.37,2015-06-02 06:33:00,
2015-06-02 02:38:00,48.9,48.7,30.05,North,0,1.2,0.0,99,0.00,CLR,,0.00,0.0,WeatherDisplay:10.37,2015-06-02 06:38:00,
2015-06-02 02:43:00,48.9,48.7,30.04,North,0,1.2,0.0,99,0.00,CLR,,0.00,0.0,WeatherDisplay:10.37,2015-06-02 06:43:00,
2015-06-02 02:48:00,48.9,48.7,30.04,North,0,0.0,0.0,99,0.00,CLR,,0.00,0.0,WeatherDisplay:10.37,2015-06-02 06:48:00,
2015-06-02 02:53:00,48.6,48.3,30.04,NW,315,0.0,0.0,99,0.00,CLR,,0.00,0.0,WeatherDisplay:10.37,2015-06-02 06:53:00,
2015-06-02 02:58:00,48.6,48.3,30.04,NW,315,1.2,0.0,99,0.00,CLR,,0.00,0.0,WeatherDisplay:10.37,2015-06-02 06:58:00,
2015-06-02 03:03:00,48.7,48.5,30.04,North,0,1.2,0.0,99,0.00,CLR,,0.00,0.0,WeatherDisplay:10.37,2015-06-02 07:03:00,
2015-06-02 03:08:00,48.7,48.5,30.03,North,0,2.3,2.3,99,0.00,CLR,,0.00,0.0,WeatherDisplay:10.37,2015-06-02 07:08:00,
2015-06-02 03:13:00,48.7,48.5,30.03,North,0,1.2,0.0,99,0.00,CLR,,0.00,0.0,WeatherDisplay:10.37,2015-06-02 07:13:00,
2015-06-02 03:18:00,48.6,48.3,30.04,NW,315,1.2,0.0,99,0.00,CLR,,0.00,0.0,WeatherDisplay:10.37,2015-06-02 07:18:00,
2015-06-02 03:23:00,48.4,48.1,30.04,North,0,0.0,0.0,99,0.00,CLR,,0.00,0.0,WeatherDisplay:10.37,2015-06-02 07:23:00,
2015-06-02 03:28:00,48.4,48.1,30.03,North,0,1.2,0.0,99,0.00,CLR,,0.00,0.0,WeatherDisplay:10.37,2015-06-02 07:28:00,
2015-06-02 03:33:00,48.4,48.1,30.03,North,0,0.0,0.0,99,0.00,CLR,,0.00,0.0,WeatherDisplay:10.37,2015-06-02 07:33:00,
2015-06-02 03:38:00,48.4,48.1,30.03,North,0,1.2,0.0,99,0.00,CLR,,0.00,0.0,WeatherDisplay:10.37,2015-06-02 07:38:00,
2015-06-02 03:43:00,48.2,47.9,30.03,North,0,0.0,0.0,99,0.00,CLR,,0.00,0.0,WeatherDisplay:10.37,2015-06-02 07:43:00,
2015-06-02 03:48:00,48.2,47.9,30.03,North,0,0.0,0.0,99,0.00,CLR,,0.00,0.0,WeatherDisplay:10.37,2015-06-02 07:48:00,
2015-06-02 03:53:00,48.0,47.8,30.03,North,0,0.0,0.0,99,0.00,CLR,,0.00,0.0,WeatherDisplay:10.37,2015-06-02 07:53:00,
2015-06-02 04:03:00,47.8,47.6,30.03,North,0,0.0,0.0,99,0.00,CLR,,0.00,0.0,WeatherDisplay:10.37,2015-06-02 08:03:00,
2015-06-02 04:08:00,47.8,47.6,30.03,North,0,1.2,0.0,99,0.00,CLR,,0.00,0.0,WeatherDisplay:10.37,2015-06-02 08:08:00,
2015-06-02 04:13:00,47.8,47.6,30.03,North,0,0.0,0.0,99,0.00,CLR,,0.00,0.0,WeatherDisplay:10.37,2015-06-02 08:13:00,
2015-06-02 04:18:00,47.8,47.6,30.03,North,0,2.3,2.3,99,0.00,CLR,,0.00,0.0,WeatherDisplay:10.37,2015-06-02 08:18:00,
2015-06-02 04:23:00,48.0,47.8,30.03,North,0,1.2,0.0,99,0.00,CLR,,0.00,0.0,WeatherDisplay:10.37,2015-06-02 08:23:00,
2015-06-02 04:28:00,48.2,47.9,30.02,North,0,1.2,0.0,99,0.00,CLR,,0.00,0.0,WeatherDisplay:10.37,2015-06-02 08:28:00,
2015-06-02 04:33:00,48.4,48.1,30.03,NW,315,1.2,0.0,99,0.00,CLR,,0.00,0.0,WeatherDisplay:10.37,2015-06-02 08:33:00,
2015-06-02 04:43:00,48.7,48.5,30.03,East,90,2.3,0.0,99,0.00,CLR,,0.00,0.0,WeatherDisplay:10.37,2015-06-02 08:43:00,
2015-06-02 04:48:00,48.9,48.7,30.03,NE,45,1.2,0.0,99,0.00,CLR,,0.00,0.0,WeatherDisplay:10.37,2015-06-02 08:48:00,
2015-06-02 04:53:00,49.1,48.8,30.03,North,0,1.2,0.0,99,0.00,CLR,,0.00,0.0,WeatherDisplay:10.37,2015-06-02 08:53:00,
2015-06-02 04:58:00,49.3,49.0,30.03,North,0,0.0,0.0,99,0.00,CLR,,0.00,0.0,WeatherDisplay:10.37,2015-06-02 08:58:00,
2015-06-02 05:03:00,49.3,49.0,30.03,North,0,1.2,1.2,99,0.00,CLR,,0.00,0.0,WeatherDisplay:10.37,2015-06-02 09:03:00,
2015-06-02 05:08:00,49.5,49.2,30.03,North,0,0.0,0.0,99,0.00,CLR,,0.00,0.0,WeatherDisplay:10.37,2015-06-02 09:08:00,
2015-06-02 05:13:00,49.5,49.2,30.03,North,0,1.2,0.0,99,0.00,CLR,,0.00,0.0,WeatherDisplay:10.37,2015-06-02 09:13:00,
2015-06-02 05:18:00,49.6,49.4,30.03,North,0,1.2,0.0,99,0.00,CLR,,0.00,0.0,WeatherDisplay:10.37,2015-06-02 09:18:00,
2015-06-02 05:23:00,49.6,49.4,30.03,NE,45,2.3,0.0,99,0.00,CLR,,0.00,0.0,WeatherDisplay:10.37,2015-06-02 09:23:00,
2015-06-02 05:28:00,49.6,49.4,30.03,North,0,0.0,0.0,99,0.00,CLR,,0.00,0.0,WeatherDisplay:10.37,2015-06-02 09:28:00,
2015-06-02 05:33:00,49.8,49.6,30.03,North,0,0.0,0.0,99,0.00,CLR,,0.00,0.0,WeatherDisplay:10.37,2015-06-02 09:33:00,
2015-06-02 05:38:00,49.8,49.6,30.03,North,0,0.0,0.0,99,0.00,CLR,,0.00,0.0,WeatherDisplay:10.37,2015-06-02 09:38:00,
2015-06-02 05:43:00,49.8,49.6,30.03,NE,45,1.2,0.0,99,0.00,CLR,,0.00,0.0,WeatherDisplay:10.37,2015-06-02 09:43:00,
2015-06-02 05:48:00,49.8,49.6,30.03,NE,45,0.0,0.0,99,0.00,CLR,,0.00,0.0,WeatherDisplay:10.37,2015-06-02 09:48:00,
2015-06-02 05:53:00,49.8,49.6,30.03,North,0,1.2,0.0,99,0.00,CLR,,0.00,0.0,WeatherDisplay:10.37,2015-06-02 09:53:00,
2015-06-02 05:58:00,50.0,49.7,30.03,North,0,1.2,0.0,99,0.00,CLR,,0.00,0.0,WeatherDisplay:10.37,2015-06-02 09:58:00,
2015-06-02 06:03:00,50.0,49.7,30.03,North,0,1.2,0.0,99,0.00,CLR,,0.00,0.0,WeatherDisplay:10.37,2015-06-02 10:03:00,
2015-06-02 06:08:00,50.0,49.7,30.04,North,0,0.0,0.0,99,0.00,CLR,,0.00,0.0,WeatherDisplay:10.37,2015-06-02 10:08:00,
2015-06-02 06:13:00,50.0,49.7,30.03,North,0,1.2,0.0,99,0.00,CLR,,0.00,0.0,WeatherDisplay:10.37,2015-06-02 10:13:00,
2015-06-02 06:18:00,50.0,49.7,30.04,SW,225,1.2,0.0,99,0.00,CLR,,0.00,0.0,WeatherDisplay:10.37,2015-06-02 10:18:00,
2015-06-02 06:23:00,50.0,49.7,30.04,South,180,1.2,0.0,99,0.00,CLR,,0.00,0.0,WeatherDisplay:10.37,2015-06-02 10:23:00,
2015-06-02 06:28:00,50.2,49.9,30.04,North,0,2.3,0.0,99,0.00,CLR,,0.00,0.0,WeatherDisplay:10.37,2015-06-02 10:28:00,
2015-06-02 06:33:00,50.2,49.9,30.04,North,0,1.2,0.0,99,0.00,CLR,,0.00,0.0,WeatherDisplay:10.37,2015-06-02 10:33:00,
2015-06-02 06:38:00,50.2,49.9,30.04,North,0,1.2,1.2,99,0.00,CLR,,0.00,0.0,WeatherDisplay:10.37,2015-06-02 10:38:00,
2015-06-02 06:43:00,50.2,49.9,30.04,North,0,1.2,1.2,99,0.00,CLR,,0.00,0.0,WeatherDisplay:10.37,2015-06-02 10:43:00,
2015-06-02 06:48:00,50.4,50.1,30.03,North,0,2.3,2.3,99,0.00,CLR,,0.00,0.0,WeatherDisplay:10.37,2015-06-02 10:48:00,
2015-06-02 06:53:00,50.4,50.1,30.04,North,0,1.2,0.0,99,0.00,CLR,,0.00,0.0,WeatherDisplay:10.37,2015-06-02 10:53:00,
2015-06-02 06:58:00,50.4,50.1,30.04,NNW,338,1.2,0.0,99,0.00,CLR,,0.00,0.0,WeatherDisplay:10.37,2015-06-02 10:58:00,
2015-06-02 07:03:00,50.5,50.3,30.04,SE,135,1.2,0.0,99,0.00,CLR,,0.00,0.0,WeatherDisplay:10.37,2015-06-02 11:03:00,
2015-06-02 07:08:00,50.5,50.3,30.04,North,0,1.2,0.0,99,0.00,CLR,,0.00,0.0,WeatherDisplay:10.37,2015-06-02 11:08:00,
2015-06-02 07:13:00,50.5,50.3,30.05,NE,45,0.0,0.0,99,0.00,CLR,,0.00,0.0,WeatherDisplay:10.37,2015-06-02 11:13:00,
2015-06-02 07:18:00,50.5,50.3,30.05,NE,45,0.0,0.0,99,0.00,CLR,,0.00,0.0,WeatherDisplay:10.37,2015-06-02 11:18:00,
2015-06-02 07:23:00,50.5,50.3,30.05,North,0,1.2,0.0,99,0.00,CLR,,0.00,0.0,WeatherDisplay:10.37,2015-06-02 11:23:00,
2015-06-02 07:28:00,50.7,50.4,30.05,North,0,1.2,0.0,99,0.00,CLR,,0.00,0.0,WeatherDisplay:10.37,2015-06-02 11:28:00,
2015-06-02 07:33:00,50.7,50.4,30.05,South,180,0.0,0.0,99,0.00,CLR,,0.00,0.0,WeatherDisplay:10.37,2015-06-02 11:33:00,
2015-06-02 07:38:00,50.9,50.6,30.05,North,0,0.0,0.0,99,0.00,CLR,,0.00,0.0,WeatherDisplay:10.37,2015-06-02 11:38:00,
2015-06-02 07:43:00,50.9,50.6,30.05,North,0,0.0,0.0,99,0.00,CLR,,0.00,0.0,WeatherDisplay:10.37,2015-06-02 11:43:00,
2015-06-02 07:48:00,51.1,50.8,30.05,North,0,0.0,0.0,99,0.00,CLR,,0.00,0.0,WeatherDisplay:10.37,2015-06-02 11:48:00,